Time;durP1;ratioP1;P1;durP2;ratioP2;P2;SDS_P1;SDS_P2;PMS_P1;PMS_P2;Temp;Humidity;BMP_temperature;BMP_pressure;BME280_temperature;BME280_humidity;BME280_pressure;Samples;Min_cycle;Max_cycle;Signal;HPM_P1;HPM_P2
2022/11/04 00:01:33;;;;;;;5.38;3.95;;;11.50;99.90;;;;;;5133210;27;19974;-72
2022/11/04 00:03:59;;;;;;;4.95;3.65;;;11.50;99.90;;;;;;5133164;27;20112;-73
2022/11/04 00:06:25;;;;;;;5.25;4.07;;;11.50;99.90;;;;;;5142201;27;20510;-73
2022/11/04 00:08:53;;;;;;;7.47;4.07;;;11.50;99.90;;;;;;5153835;27;20047;-73
2022/11/04 00:14:05;;;;;;;5.18;3.85;;;11.40;99.90;;;;;;5153844;27;20082;-73
2022/11/04 00:19:15;;;;;;;4.00;3.38;;;11.30;99.90;;;;;;5153482;27;20080;-73
2022/11/04 00:30:00;;;;;;;2.90;0.95;;;11.00;99.90;;;;;;5153215;27;20050;-73
2022/11/04 00:35:12;;;;;;;1.50;0.60;;;10.80;99.90;;;;;;5120643;27;20061;-72
2022/11/04 00:37:40;;;;;;;1.10;0.60;;;10.70;99.90;;;;;;5153496;27;20542;-73
2022/11/04 00:40:07;;;;;;;1.08;0.52;;;10.60;99.90;;;;;;5153454;27;20099;-73
2022/11/04 00:42:33;;;;;;;0.85;0.50;;;10.60;99.90;;;;;;5153231;27;20046;-72
2022/11/04 00:44:58;;;;;;;1.30;0.57;;;10.60;99.90;;;;;;5135083;27;20522;-72
2022/11/04 00:47:24;;;;;;;1.00;0.43;;;10.60;99.90;;;;;;5153580;27;20042;-73
2022/11/04 00:49:50;;;;;;;1.23;0.50;;;10.60;99.90;;;;;;5153365;27;20054;-73
2022/11/04 00:52:16;;;;;;;1.35;0.60;;;10.50;99.90;;;;;;5134329;27;20083;-72
2022/11/04 00:54:42;;;;;;;0.80;0.40;;;10.50;99.90;;;;;;5153130;27;20042;-73
2022/11/04 00:57:09;;;;;;;1.15;0.50;;;10.50;99.90;;;;;;5134727;27;20158;-72
2022/11/04 00:59:35;;;;;;;1.40;0.52;;;10.50;99.90;;;;;;5153160;27;20046;-72
2022/11/04 01:02:00;;;;;;;1.52;0.50;;;10.50;99.90;;;;;;5152956;27;20039;-72
2022/11/04 01:04:26;;;;;;;0.77;0.40;;;10.50;99.90;;;;;;5152896;27;20517;-73
2022/11/04 01:06:52;;;;;;;0.95;0.40;;;10.40;99.90;;;;;;5153051;27;20547;-72
2022/11/04 01:09:18;;;;;;;0.82;0.45;;;10.40;99.90;;;;;;5152849;27;20054;-73
2022/11/04 01:11:43;;;;;;;0.70;0.40;;;10.50;99.90;;;;;;5152996;27;20591;-72
2022/11/04 01:14:10;;;;;;;0.85;0.45;;;10.40;99.90;;;;;;5152895;27;20042;-73
2022/11/04 01:16:35;;;;;;;1.52;0.60;;;10.40;99.90;;;;;;5153267;27;20054;-73
2022/11/04 01:19:01;;;;;;;0.85;0.45;;;10.60;99.90;;;;;;5152632;27;20367;-72
2022/11/04 01:21:27;;;;;;;1.00;0.47;;;10.40;99.90;;;;;;5152899;27;20057;-72
2022/11/04 01:23:53;;;;;;;0.82;0.40;;;10.40;99.90;;;;;;5152286;27;20102;-73
2022/11/04 01:26:22;;;;;;;1.70;0.80;;;10.40;99.90;;;;;;5152863;27;20130;-73
2022/11/04 01:28:48;;;;;;;1.45;0.50;;;10.40;99.90;;;;;;5152697;27;20098;-72
2022/11/04 01:31:20;;;;;;;1.70;0.50;;;10.30;99.90;;;;;;5153089;27;20510;-73
2022/11/04 01:33:46;;;;;;;1.02;0.50;;;10.30;99.90;;;;;;5152614;27;20050;-72
2022/11/04 01:36:12;;;;;;;0.93;0.50;;;10.30;99.90;;;;;;5157046;27;20062;-73
2022/11/04 01:38:38;;;;;;;1.52;0.50;;;10.40;99.90;;;;;;5156658;27;20102;-72
2022/11/04 01:41:04;;;;;;;1.52;0.50;;;10.30;99.90;;;;;;5156963;27;20042;-73
2022/11/04 01:43:42;;;;;;;1.05;0.55;;;10.30;99.90;;;;;;5156831;27;20077;-72
2022/11/04 01:46:12;;;;;;;1.13;0.50;;;10.30;99.90;;;;;;5156668;27;20050;-73
2022/11/04 01:48:38;;;;;;;1.33;0.55;;;10.30;99.90;;;;;;5156835;27;20043;-72
2022/11/04 01:51:05;;;;;;;1.63;0.40;;;10.20;99.90;;;;;;5156726;27;20545;-72
2022/11/04 01:53:38;;;;;;;1.08;0.50;;;10.20;99.90;;;;;;5156193;27;20046;-72
2022/11/04 01:56:13;;;;;;;1.58;0.82;;;10.20;99.90;;;;;;5156605;27;20140;-73
2022/11/04 01:58:47;;;;;;;2.03;0.70;;;10.20;99.90;;;;;;5156596;27;20042;-72
2022/11/04 02:01:13;;;;;;;1.83;0.60;;;10.20;99.90;;;;;;5156415;27;20495;-74
2022/11/04 02:03:51;;;;;;;1.10;0.50;;;10.20;99.90;;;;;;5155921;27;20077;-73
2022/11/04 02:06:20;;;;;;;2.17;1.00;;;10.20;99.90;;;;;;5156588;27;20425;-72
2022/11/04 02:08:46;;;;;;;1.42;0.70;;;10.20;99.90;;;;;;5156184;27;20051;-73
2022/11/04 02:12:48;;;;;;;1.67;0.80;;;10.20;99.90;;;;;;5156251;27;20051;-73
2022/11/04 02:13:59;;;;;;;2.17;0.83;;;10.20;99.90;;;;;;5156190;27;20070;-73
2022/11/04 02:16:39;;;;;;;1.60;0.90;;;10.20;99.90;;;;;;5156282;27;20283;-73
2022/11/04 02:19:10;;;;;;;2.10;1.02;;;10.20;99.90;;;;;;5156011;27;20046;-73
2022/11/04 02:21:45;;;;;;;2.50;0.93;;;10.20;99.90;;;;;;5137419;27;20047;-73
2022/11/04 02:24:30;;;;;;;2.00;1.20;;;10.30;99.90;;;;;;5155595;27;20089;-72
2022/11/04 02:27:37;;;;;;;3.45;1.50;;;10.20;99.90;;;;;;5137601;27;20395;-72
2022/11/04 02:30:08;;;;;;;3.90;1.27;;;10.20;99.90;;;;;;5106855;27;20054;-72
2022/11/04 02:32:36;;;;;;;2.83;1.00;;;10.20;99.90;;;;;;5155708;27;20035;-71
2022/11/04 02:35:22;;;;;;;3.63;1.75;;;10.20;99.90;;;;;;5155758;27;20085;-71
2022/11/04 02:37:55;;;;;;;2.20;1.35;;;10.10;99.90;;;;;;5155797;27;20556;-70
2022/11/04 02:40:48;;;;;;;4.82;1.70;;;10.10;99.90;;;;;;5137338;27;20092;-70
2022/11/04 02:43:33;;;;;;;2.95;1.48;;;10.00;99.90;;;;;;5155551;27;20489;-70
2022/11/04 02:46:09;;;;;;;3.63;1.83;;;10.00;99.90;;;;;;5154624;27;20094;-70
2022/11/04 02:48:52;;;;;;;3.78;1.75;;;10.00;99.90;;;;;;5155502;27;20078;-70
2022/11/04 02:51:30;;;;;;;1.70;0.80;;;10.00;99.90;;;;;;5155258;27;20078;-70
2022/11/04 02:54:32;;;;;;;2.03;1.20;;;10.00;99.90;;;;;;5155124;27;20098;-69
2022/11/04 02:57:00;;;;;;;2.00;0.70;;;10.00;99.90;;;;;;5155530;27;20042;-69
2022/11/04 02:59:41;;;;;;;1.90;0.70;;;9.90;99.90;;;;;;5155413;27;20074;-69
2022/11/04 03:02:15;;;;;;;1.42;0.80;;;9.80;99.90;;;;;;5155291;27;20092;-70
2022/11/04 03:04:45;;;;;;;1.90;1.00;;;9.80;99.90;;;;;;5155051;27;20127;-69
2022/11/04 03:07:16;;;;;;;3.00;1.27;;;9.90;99.90;;;;;;5155212;27;20043;-70
2022/11/04 03:09:48;;;;;;;2.70;1.70;;;9.90;99.90;;;;;;5155085;27;20054;-69
2022/11/04 03:12:18;;;;;;;3.63;1.98;;;9.90;99.90;;;;;;5155200;27;20432;-70
2022/11/04 03:14:53;;;;;;;4.30;2.53;;;9.90;99.90;;;;;;5155080;27;20051;-69
2022/11/04 03:17:33;;;;;;;4.25;2.97;;;10.00;99.90;;;;;;5154956;27;20046;-70
2022/11/04 03:20:00;;;;;;;7.05;2.95;;;10.00;99.90;;;;;;5154996;27;20039;-70
2022/11/04 03:22:33;;;;;;;5.47;3.42;;;10.00;99.90;;;;;;5154812;27;20152;-71
2022/11/04 03:25:01;;;;;;;6.35;3.58;;;10.00;99.90;;;;;;5154132;27;20528;-70
2022/11/04 03:27:31;;;;;;;6.30;3.13;;;10.00;99.90;;;;;;5154972;27;20047;-70
2022/11/04 03:30:19;;;;;;;5.88;3.97;;;10.10;99.90;;;;;;5154644;27;20142;-71
2022/11/04 03:33:19;;;;;;;6.60;3.60;;;10.00;99.90;;;;;;5134163;27;20042;-70
2022/11/04 03:35:45;;;;;;;4.30;2.60;;;10.00;99.90;;;;;;5133963;27;20087;-71
2022/11/04 03:38:11;;;;;;;3.85;2.63;;;9.90;99.90;;;;;;5133861;27;20087;-72
2022/11/04 03:40:37;;;;;;;5.05;3.08;;;9.90;99.90;;;;;;5133820;27;20161;-71
2022/11/04 03:43:24;;;;;;;5.68;2.55;;;9.90;99.90;;;;;;5133782;27;20050;-70
2022/11/04 03:45:50;;;;;;;3.35;2.15;;;9.90;99.90;;;;;;5133868;27;20134;-70
2022/11/04 03:48:16;;;;;;;3.00;1.75;;;9.90;99.90;;;;;;5149720;27;20042;-71
2022/11/04 03:50:46;;;;;;;3.38;1.90;;;9.80;99.90;;;;;;5154190;27;20501;-71
2022/11/04 03:53:15;;;;;;;2.47;1.58;;;9.80;99.90;;;;;;5135299;27;20041;-70
2022/11/04 03:55:52;;;;;;;3.92;2.22;;;9.70;99.90;;;;;;5153897;27;20586;-71
2022/11/04 03:58:33;;;;;;;2.55;1.80;;;9.80;99.90;;;;;;5154078;27;20043;-71
2022/11/04 04:01:48;;;;;;;2.60;1.38;;;9.70;99.90;;;;;;5135676;27;20468;-70
2022/11/04 04:04:29;;;;;;;2.38;1.30;;;9.70;99.90;;;;;;5123859;27;20058;-70
2022/11/04 04:07:13;;;;;;;2.13;1.13;;;9.70;99.90;;;;;;5132851;27;20051;-70
2022/11/04 04:10:37;;;;;;;2.97;1.10;;;9.60;99.90;;;;;;5132083;27;20099;-71
2022/11/04 04:12:56;;;;;;;1.80;0.80;;;9.60;99.90;;;;;;5132740;27;20114;-70
2022/11/04 04:15:28;;;;;;;2.60;1.10;;;9.50;99.90;;;;;;5117501;27;20101;-70
2022/11/04 04:18:00;;;;;;;2.58;0.90;;;9.50;99.90;;;;;;5112589;28;20051;-70
2022/11/04 04:20:29;;;;;;;1.52;0.70;;;9.50;99.90;;;;;;5099325;28;20121;-70
2022/11/04 04:23:02;;;;;;;0.73;0.43;;;9.40;99.90;;;;;;5092064;28;20052;-70
2022/11/04 04:28:17;;;;;;;1.15;0.45;;;9.30;99.90;;;;;;5092065;28;20099;-70
2022/11/04 04:30:43;;;;;;;1.02;0.47;;;9.30;99.90;;;;;;5091660;28;20047;-70
2022/11/04 04:33:14;;;;;;;0.75;0.40;;;9.30;99.90;;;;;;5091949;28;20122;-69
2022/11/04 04:35:48;;;;;;;1.75;0.40;;;9.30;99.90;;;;;;5091949;28;20047;-69
2022/11/04 04:46:48;;;;;;;0.98;0.40;;;9.20;99.90;;;;;;5132591;27;20131;-69
2022/11/04 04:49:14;;;;;;;0.57;0.40;;;9.20;99.90;;;;;;5132480;27;20100;-69
2022/11/04 04:51:43;;;;;;;0.80;0.40;;;9.30;99.90;;;;;;5132835;27;20146;-69
2022/11/04 04:54:09;;;;;;;1.60;0.50;;;9.30;99.90;;;;;;5132121;27;20055;-69
2022/11/04 04:56:34;;;;;;;1.55;0.60;;;9.50;99.90;;;;;;5132517;27;20046;-69
2022/11/04 04:59:00;;;;;;;1.20;0.40;;;9.30;99.90;;;;;;5132346;27;20047;-69
2022/11/04 05:01:26;;;;;;;2.15;0.70;;;9.30;99.90;;;;;;5132455;27;20047;-70
2022/11/04 05:03:51;;;;;;;2.25;0.98;;;9.30;99.90;;;;;;5134169;27;20060;-69
2022/11/04 05:06:17;;;;;;;0.95;0.50;;;9.30;99.90;;;;;;5152769;27;20494;-70
2022/11/04 05:08:43;;;;;;;1.33;0.70;;;9.30;99.90;;;;;;5152447;27;20115;-71
2022/11/04 05:11:08;;;;;;;0.75;0.50;;;9.30;99.90;;;;;;5152784;27;20045;-70
2022/11/04 05:13:34;;;;;;;1.40;0.60;;;9.50;99.90;;;;;;5152796;27;20042;-70
2022/11/04 05:16:08;;;;;;;1.75;0.57;;;9.30;99.90;;;;;;5152871;27;20372;-70
2022/11/04 05:18:34;;;;;;;0.90;0.40;;;9.30;99.90;;;;;;5152587;27;20498;-70
2022/11/04 05:21:09;;;;;;;1.83;0.50;;;9.50;99.90;;;;;;5152640;27;20038;-70
2022/11/04 05:23:35;;;;;;;2.22;0.63;;;9.20;99.90;;;;;;5152259;27;20088;-71
2022/11/04 05:26:01;;;;;;;1.13;0.57;;;9.20;99.90;;;;;;5152662;27;20054;-70
2022/11/04 05:28:26;;;;;;;2.42;0.80;;;9.20;99.90;;;;;;5152674;27;20088;-70
2022/11/04 05:30:52;;;;;;;2.10;0.52;;;9.20;99.90;;;;;;5152501;27;20095;-70
2022/11/04 05:33:18;;;;;;;0.93;0.50;;;9.10;99.90;;;;;;5152986;27;20045;-70
2022/11/04 05:35:44;;;;;;;1.35;0.60;;;9.10;99.90;;;;;;5153002;27;20483;-70
2022/11/04 05:38:09;;;;;;;1.05;0.55;;;9.10;99.90;;;;;;5152665;27;20456;-70
2022/11/04 05:40:35;;;;;;;3.00;1.00;;;9.10;99.90;;;;;;5152632;27;20328;-70
2022/11/04 05:43:01;;;;;;;2.83;0.68;;;9.00;99.90;;;;;;5152566;27;20042;-69
2022/11/04 05:45:28;;;;;;;1.00;0.50;;;9.00;99.90;;;;;;5152455;27;20133;-70
2022/11/04 05:48:02;;;;;;;2.42;0.50;;;9.00;99.90;;;;;;5152703;27;20349;-70
2022/11/04 05:50:29;;;;;;;1.10;0.47;;;8.90;99.90;;;;;;5152625;27;20050;-70
2022/11/04 05:52:59;;;;;;;1.08;0.68;;;8.90;99.90;;;;;;5134058;27;20055;-70
2022/11/04 05:55:25;;;;;;;0.80;0.50;;;8.80;99.90;;;;;;5152195;27;20042;-69
2022/11/04 05:57:52;;;;;;;1.13;0.50;;;8.80;99.90;;;;;;5152410;27;20043;-70
2022/11/04 06:00:18;;;;;;;0.85;0.47;;;8.70;99.90;;;;;;5152553;27;20465;-70
2022/11/04 06:02:43;;;;;;;2.35;0.60;;;8.70;99.90;;;;;;5152290;27;20042;-70
2022/11/04 06:05:09;;;;;;;1.50;0.45;;;8.60;99.90;;;;;;5152316;27;20107;-70
2022/11/04 06:07:35;;;;;;;0.73;0.40;;;8.60;99.90;;;;;;5152298;27;20130;-70
2022/11/04 06:10:01;;;;;;;0.85;0.40;;;8.50;99.90;;;;;;5152456;27;20085;-70
2022/11/04 06:12:27;;;;;;;1.20;0.50;;;8.50;99.90;;;;;;5152438;27;20039;-69
2022/11/04 06:14:52;;;;;;;2.20;0.52;;;8.50;99.90;;;;;;5152434;27;20566;-69
2022/11/04 06:17:20;;;;;;;1.17;0.50;;;8.40;99.90;;;;;;5133572;27;20062;-70
2022/11/04 06:19:47;;;;;;;1.33;0.50;;;8.40;99.90;;;;;;5152492;27;20046;-69
2022/11/04 06:22:15;;;;;;;1.25;0.50;;;8.30;99.90;;;;;;5154339;27;20099;-70
2022/11/04 06:24:40;;;;;;;1.23;0.60;;;8.30;99.90;;;;;;5155702;27;20043;-69
2022/11/04 06:27:07;;;;;;;1.58;0.50;;;8.30;99.90;;;;;;5155980;27;20073;-69
2022/11/04 06:29:33;;;;;;;0.82;0.57;;;8.30;99.90;;;;;;5155706;27;20130;-70
2022/11/04 06:31:58;;;;;;;2.67;0.65;;;8.30;99.90;;;;;;5155995;27;20107;-70
2022/11/04 06:34:24;;;;;;;1.20;0.43;;;8.30;99.90;;;;;;5155901;27;20558;-70
2022/11/04 06:36:50;;;;;;;2.88;0.50;;;8.40;99.90;;;;;;5155757;27;20047;-69
2022/11/04 06:39:16;;;;;;;1.17;0.57;;;8.40;99.90;;;;;;5155797;27;20482;-69
2022/11/04 06:41:41;;;;;;;0.90;0.50;;;8.30;99.90;;;;;;5136332;27;20050;-69
2022/11/04 06:44:07;;;;;;;3.25;0.70;;;8.30;99.90;;;;;;5154429;27;20057;-69
2022/11/04 06:46:38;;;;;;;1.23;0.63;;;8.30;99.90;;;;;;5154844;27;20045;-70
2022/11/04 06:49:05;;;;;;;1.33;0.60;;;8.30;99.90;;;;;;5155320;27;20088;-69
2022/11/04 06:51:31;;;;;;;2.05;0.80;;;8.30;99.90;;;;;;5155480;27;20053;-69
2022/11/04 06:53:57;;;;;;;2.40;0.77;;;8.30;99.90;;;;;;5155035;27;20088;-69
2022/11/04 06:56:23;;;;;;;1.70;0.77;;;8.20;99.90;;;;;;5155432;27;20127;-70
2022/11/04 06:58:50;;;;;;;1.30;0.70;;;8.30;99.90;;;;;;5155577;27;20133;-69
2022/11/04 07:01:17;;;;;;;1.27;0.70;;;8.50;99.90;;;;;;5155397;27;20054;-71
2022/11/04 07:03:43;;;;;;;2.05;0.90;;;8.40;99.90;;;;;;5155083;27;20106;-70
2022/11/04 07:06:10;;;;;;;1.80;0.80;;;8.50;99.90;;;;;;5154984;27;20512;-70
2022/11/04 07:08:36;;;;;;;2.05;0.90;;;8.20;99.90;;;;;;5154785;27;20514;-70
2022/11/04 07:11:02;;;;;;;2.05;1.10;;;8.20;99.90;;;;;;5155014;27;20046;-70
2022/11/04 07:13:28;;;;;;;2.05;1.00;;;8.20;99.90;;;;;;5155058;27;20049;-70
2022/11/04 07:15:54;;;;;;;2.25;1.00;;;8.20;99.90;;;;;;5154595;27;20544;-69
2022/11/04 07:18:19;;;;;;;1.60;0.90;;;8.20;99.90;;;;;;5155013;27;20054;-70
2022/11/04 07:20:46;;;;;;;2.60;1.00;;;8.20;99.90;;;;;;5154900;27;20049;-70
2022/11/04 07:23:11;;;;;;;3.25;1.00;;;8.20;99.90;;;;;;5154665;27;20433;-69
2022/11/04 07:25:37;;;;;;;2.38;1.08;;;8.30;99.90;;;;;;5135878;27;20126;-69
2022/11/04 07:28:03;;;;;;;1.88;1.08;;;8.30;99.90;;;;;;5154618;27;20078;-64
2022/11/04 07:30:28;;;;;;;2.53;1.27;;;8.30;99.90;;;;;;5154822;27;20043;-64
2022/11/04 07:32:54;;;;;;;1.92;1.10;;;8.40;99.90;;;;;;5154374;27;20099;-64
2022/11/04 07:35:20;;;;;;;3.72;1.20;;;8.30;99.90;;;;;;5154390;27;20095;-64
2022/11/04 07:37:45;;;;;;;2.30;1.38;;;8.30;99.90;;;;;;5154566;27;20118;-64
2022/11/04 07:40:11;;;;;;;3.30;1.40;;;8.40;99.90;;;;;;5154451;27;20042;-64
2022/11/04 07:42:37;;;;;;;3.75;1.40;;;8.40;99.90;;;;;;5154498;27;20039;-64
2022/11/04 07:45:03;;;;;;;3.40;1.50;;;8.40;99.90;;;;;;5154434;27;20127;-64
2022/11/04 07:47:30;;;;;;;2.90;1.70;;;8.40;99.90;;;;;;5154442;27;20049;-64
2022/11/04 07:49:55;;;;;;;3.50;1.98;;;8.40;99.90;;;;;;5154265;27;20050;-64
2022/11/04 07:52:21;;;;;;;4.05;2.00;;;8.50;99.90;;;;;;5154205;27;20053;-64
2022/11/04 07:54:47;;;;;;;3.53;1.75;;;8.50;99.90;;;;;;5153874;27;20047;-64
2022/11/04 07:57:12;;;;;;;3.15;2.10;;;8.60;99.90;;;;;;5154136;27;20479;-64
2022/11/04 07:59:38;;;;;;;3.33;2.15;;;8.60;99.90;;;;;;5153996;27;20447;-64
2022/11/04 08:02:04;;;;;;;4.18;1.95;;;8.70;99.90;;;;;;5154196;27;20415;-64
2022/11/04 08:04:30;;;;;;;3.47;2.20;;;8.70;99.90;;;;;;5131838;27;20055;-63
2022/11/04 08:06:56;;;;;;;4.13;2.33;;;8.80;99.90;;;;;;5132856;27;20035;-63
2022/11/04 08:09:22;;;;;;;5.13;2.63;;;8.80;99.90;;;;;;5131983;27;20047;-63
2022/11/04 08:11:48;;;;;;;4.95;2.72;;;8.80;99.90;;;;;;5131808;27;20053;-63
2022/11/04 08:14:14;;;;;;;4.85;3.20;;;8.90;99.90;;;;;;5132847;27;20049;-63
2022/11/04 08:16:39;;;;;;;5.28;3.08;;;9.00;99.90;;;;;;5132270;27;20468;-63
2022/11/04 08:19:05;;;;;;;5.97;3.28;;;9.00;99.90;;;;;;5132555;27;20039;-63
2022/11/04 08:21:32;;;;;;;5.63;3.50;;;9.00;99.90;;;;;;5128197;27;20425;-64
2022/11/04 08:23:58;;;;;;;6.80;3.63;;;8.90;99.90;;;;;;5118609;27;20042;-64
2022/11/04 08:26:24;;;;;;;5.45;3.53;;;9.00;99.90;;;;;;5130357;27;20043;-64
2022/11/04 08:28:50;;;;;;;5.43;3.70;;;9.10;99.90;;;;;;5131344;27;20051;-64
2022/11/04 08:31:25;;;;;;;7.28;3.97;;;9.00;99.90;;;;;;5132041;27;20062;-65
2022/11/04 08:33:51;;;;;;;7.88;3.90;;;9.10;99.90;;;;;;5132298;27;20118;-65
2022/11/04 08:36:22;;;;;;;5.70;3.85;;;9.10;99.90;;;;;;5131746;27;20134;-64
2022/11/04 08:38:48;;;;;;;6.22;4.30;;;9.10;99.90;;;;;;5132381;27;20391;-65
2022/11/04 08:41:16;;;;;;;5.95;3.80;;;9.10;99.90;;;;;;5131972;27;20043;-65
2022/11/04 08:43:42;;;;;;;6.63;4.25;;;9.10;99.90;;;;;;5129902;27;20493;-65
2022/11/04 08:46:10;;;;;;;5.47;3.95;;;9.10;99.90;;;;;;5131830;27;20051;-65
2022/11/04 08:48:37;;;;;;;6.55;4.78;;;9.20;99.90;;;;;;5132458;27;20035;-65
2022/11/04 08:51:05;;;;;;;8.48;4.55;;;9.20;99.90;;;;;;5132370;27;20061;-64
2022/11/04 08:53:31;;;;;;;7.95;4.68;;;9.30;99.90;;;;;;5131730;27;20031;-63
2022/11/04 08:55:56;;;;;;;7.93;4.80;;;9.40;99.90;;;;;;5131764;27;20066;-64
2022/11/04 08:58:23;;;;;;;8.15;5.15;;;9.50;99.90;;;;;;5130879;27;20134;-65
2022/11/04 09:00:50;;;;;;;7.68;4.80;;;9.60;99.90;;;;;;5130685;27;20113;-64
2022/11/04 09:03:17;;;;;;;7.88;4.75;;;9.70;99.90;;;;;;5131402;27;20067;-64
2022/11/04 09:05:44;;;;;;;7.80;4.68;;;9.80;99.90;;;;;;5151335;27;20094;-64
2022/11/04 09:08:15;;;;;;;8.90;5.25;;;9.90;99.90;;;;;;5152483;27;20043;-64
2022/11/04 09:10:45;;;;;;;10.05;5.95;;;10.00;99.90;;;;;;5152602;27;20046;-64
2022/11/04 09:13:12;;;;;;;7.85;4.85;;;10.10;99.90;;;;;;5134366;27;20082;-64
2022/11/04 09:15:38;;;;;;;7.53;5.03;;;10.10;99.90;;;;;;5152267;27;20057;-64
2022/11/04 09:18:04;;;;;;;7.85;5.07;;;10.10;99.90;;;;;;5134023;27;20057;-64
2022/11/04 09:20:30;;;;;;;8.40;5.18;;;10.10;99.90;;;;;;5152522;27;20078;-64
2022/11/04 09:22:57;;;;;;;8.20;4.40;;;10.20;99.90;;;;;;5133620;27;20039;-63
2022/11/04 09:25:23;;;;;;;6.70;4.53;;;10.30;99.90;;;;;;5152220;27;20524;-63
2022/11/04 09:27:48;;;;;;;7.75;4.38;;;10.40;99.90;;;;;;5133858;27;20042;-64
2022/11/04 09:30:14;;;;;;;8.43;4.50;;;10.50;99.90;;;;;;5116781;27;20074;-64
2022/11/04 09:32:40;;;;;;;6.22;4.75;;;10.50;99.90;;;;;;5152379;27;20225;-64
2022/11/04 09:35:06;;;;;;;7.03;4.75;;;10.60;99.90;;;;;;5152059;27;20068;-63
2022/11/04 09:37:32;;;;;;;7.85;4.85;;;10.80;99.90;;;;;;5152068;27;20046;-63
2022/11/04 09:39:57;;;;;;;7.30;4.70;;;11.20;99.90;;;;;;5151913;27;20058;-63
2022/11/04 09:42:26;;;;;;;7.78;4.70;;;11.40;99.90;;;;;;5152351;27;20088;-63
2022/11/04 09:45:00;;;;;;;6.25;4.32;;;11.20;99.90;;;;;;5151815;27;20049;-62
2022/11/04 09:47:27;;;;;;;8.23;4.93;;;11.00;99.90;;;;;;5152433;27;20046;-63
2022/11/04 09:49:59;;;;;;;7.13;4.97;;;10.80;99.90;;;;;;5152244;27;20038;-63
2022/11/04 09:52:29;;;;;;;9.32;6.03;;;10.60;99.90;;;;;;5152051;27;20074;-63
2022/11/04 09:55:06;;;;;;;9.23;6.60;;;10.60;99.90;;;;;;5151423;27;20053;-63
2022/11/04 09:57:32;;;;;;;;;;;10.50;99.90;;;;;;5156801;27;20046;-63
2022/11/04 09:59:58;;;;;;;9.88;6.35;;;10.40;99.90;;;;;;5137814;27;19919;-63
2022/11/04 10:02:24;;;;;;;10.70;6.93;;;10.60;99.90;;;;;;5156107;27;20481;-63
2022/11/04 10:05:03;;;;;;;9.25;6.47;;;10.90;99.90;;;;;;5155386;27;20051;-63
2022/11/04 10:07:37;;;;;;;10.15;6.55;;;11.50;99.90;;;;;;5155797;27;20058;-63
2022/11/04 10:10:36;;;;;;;10.23;6.38;;;11.40;99.90;;;;;;5156217;27;20053;-64
2022/11/04 10:13:30;;;;;;;11.82;7.22;;;11.50;99.90;;;;;;5156034;27;20268;-63
2022/11/04 10:16:09;;;;;;;8.75;6.68;;;11.50;99.90;;;;;;5137440;27;20074;-63
2022/11/04 10:18:45;;;;;;;10.10;6.05;;;11.90;99.90;;;;;;5134780;27;20043;-63
2022/11/04 10:21:36;;;;;;;10.15;6.10;;;12.20;99.90;;;;;;5154453;27;20098;-63
2022/11/04 10:24:17;;;;;;;10.88;6.82;;;12.40;99.90;;;;;;5155285;27;20129;-63
2022/11/04 10:26:53;;;;;;;11.50;7.13;;;12.70;99.90;;;;;;5155947;27;20042;-63
2022/11/04 10:29:45;;;;;;;9.35;6.80;;;12.80;99.90;;;;;;5154923;27;20333;-63
2022/11/04 10:32:39;;;;;;;8.80;6.57;;;12.80;99.90;;;;;;5136986;27;20129;-63
2022/11/04 10:35:26;;;;;;;12.82;7.07;;;12.70;99.90;;;;;;5155570;27;20374;-63
2022/11/04 10:37:54;;;;;;;8.77;5.75;;;12.60;99.90;;;;;;5137007;27;20047;-63
2022/11/04 10:40:25;;;;;;;8.18;5.07;;;12.60;99.90;;;;;;5155294;27;20039;-63
2022/11/04 10:42:53;;;;;;;8.23;5.65;;;12.40;99.90;;;;;;5154356;27;20042;-62
2022/11/04 10:45:24;;;;;;;9.30;6.05;;;12.00;99.90;;;;;;5155192;27;20046;-63
2022/11/04 10:48:06;;;;;;;9.40;5.68;;;11.60;99.90;;;;;;5154700;27;20039;-63
2022/11/04 10:50:52;;;;;;;9.35;6.22;;;11.60;99.90;;;;;;5154876;27;20138;-63
2022/11/04 10:53:29;;;;;;;9.85;6.72;;;11.80;99.90;;;;;;5154737;27;20171;-63
2022/11/04 10:56:18;;;;;;;10.05;6.50;;;11.90;99.90;;;;;;5154958;27;20046;-63
2022/11/04 10:58:46;;;;;;;9.43;5.95;;;11.80;99.90;;;;;;5154414;27;20173;-63
2022/11/04 11:01:22;;;;;;;9.80;6.45;;;11.90;99.90;;;;;;5154663;27;20121;-64
2022/11/04 11:03:48;;;;;;;8.07;4.75;;;11.80;99.90;;;;;;5154013;27;20509;-64
2022/11/04 11:06:30;;;;;;;9.93;6.40;;;11.60;99.90;;;;;;5154677;27;20043;-63
2022/11/04 11:09:17;;;;;;;9.68;6.32;;;11.40;99.90;;;;;;5149902;27;20047;-64
2022/11/04 11:11:49;;;;;;;10.38;6.03;;;11.40;99.90;;;;;;5152202;27;20039;-63
2022/11/04 11:14:28;;;;;;;10.27;6.40;;;11.50;99.90;;;;;;5154049;27;20095;-64
2022/11/04 11:16:55;;;;;;;9.00;5.22;;;11.50;99.90;;;;;;5153504;27;20101;-64
2022/11/04 11:19:24;;;;;;;8.38;5.68;;;11.50;99.90;;;;;;5154567;27;20038;-64
2022/11/04 11:21:55;;;;;;;11.80;6.32;;;11.50;99.90;;;;;;5154090;27;20057;-63
2022/11/04 11:24:26;;;;;;;11.25;6.85;;;11.40;99.90;;;;;;5154041;27;20092;-63
2022/11/04 11:26:58;;;;;;;8.90;6.43;;;11.30;99.90;;;;;;5136500;27;20082;-64
2022/11/04 11:29:27;;;;;;;9.80;6.30;;;11.30;99.90;;;;;;5153619;27;20049;-63
2022/11/04 11:31:54;;;;;;;10.93;6.00;;;11.30;99.90;;;;;;5153814;27;20039;-63
2022/11/04 11:34:25;;;;;;;12.23;6.13;;;11.30;99.90;;;;;;5154231;27;20042;-63
2022/11/04 11:36:53;;;;;;;8.23;5.28;;;11.40;99.90;;;;;;5154083;27;20471;-63
2022/11/04 11:39:22;;;;;;;8.20;5.45;;;11.40;99.90;;;;;;5153677;27;20059;-64
2022/11/04 11:41:53;;;;;;;8.68;5.75;;;11.40;99.90;;;;;;5154033;27;20103;-63
2022/11/04 11:44:27;;;;;;;8.73;5.78;;;11.40;99.90;;;;;;5153624;27;20424;-63
2022/11/04 11:47:00;;;;;;;8.90;5.75;;;11.50;99.90;;;;;;5154185;27;20093;-63
2022/11/04 11:49:36;;;;;;;10.85;6.60;;;11.40;99.90;;;;;;5153370;27;20478;-64
2022/11/04 11:52:17;;;;;;;11.00;6.78;;;11.50;99.90;;;;;;5153730;27;20054;-63
2022/11/04 11:54:48;;;;;;;10.05;6.32;;;11.60;99.90;;;;;;5153846;27;20090;-64
2022/11/04 11:57:34;;;;;;;9.70;5.50;;;11.60;99.90;;;;;;5153332;27;20558;-63
2022/11/04 12:00:14;;;;;;;9.80;4.82;;;11.60;99.90;;;;;;5153883;27;20034;-64
2022/11/04 12:02:54;;;;;;;8.00;5.38;;;11.70;99.90;;;;;;5140435;27;20043;-64
2022/11/04 12:05:29;;;;;;;7.65;4.72;;;11.60;99.90;;;;;;5132941;27;20122;-64
2022/11/04 12:08:18;;;;;;;9.05;4.82;;;11.60;99.90;;;;;;5131939;27;20051;-64
2022/11/04 12:10:51;;;;;;;7.13;4.90;;;11.60;99.90;;;;;;5132528;27;20126;-64
2022/11/04 12:13:31;;;;;;;7.00;4.57;;;11.70;99.90;;;;;;5132342;27;20126;-64
2022/11/04 12:16:15;;;;;;;6.15;3.90;;;11.80;99.90;;;;;;5133111;27;20486;-64
2022/11/04 12:19:33;;;;;;;7.63;4.60;;;11.90;99.90;;;;;;5139054;27;20044;-64
2022/11/04 12:22:13;;;;;;;6.60;4.07;;;11.90;99.90;;;;;;5130592;27;20053;-64
2022/11/04 12:25:01;;;;;;;6.78;4.20;;;11.90;99.90;;;;;;5134866;27;20039;-64
2022/11/04 12:28:01;;;;;;;7.10;4.20;;;12.00;99.90;;;;;;5153343;27;20126;-64
2022/11/04 12:30:31;;;;;;;6.40;4.25;;;11.90;99.90;;;;;;5153705;27;20329;-64
2022/11/04 12:33:27;;;;;;;6.38;3.67;;;12.00;99.90;;;;;;5153297;27;20046;-63
2022/11/04 12:35:55;;;;;;;8.05;3.70;;;12.00;99.90;;;;;;5153000;27;20129;-64
2022/11/04 12:38:59;;;;;;;5.80;4.05;;;12.00;99.90;;;;;;5152700;27;20042;-63
2022/11/04 12:41:40;;;;;;;6.72;3.90;;;12.00;99.90;;;;;;5048795;28;20045;-64
2022/11/04 12:44:36;;;;;;;5.78;4.07;;;12.00;99.90;;;;;;5141363;27;20453;-72
2022/11/04 12:47:33;;;;;;;5.75;3.97;;;12.10;99.90;;;;;;5132612;27;20470;-72
2022/11/04 12:50:05;;;;;;;;;;;12.20;99.90;;;;;;5152285;27;20156;-71
2022/11/04 12:52:52;;;;;;;6.88;3.67;;;12.30;99.90;;;;;;5153190;27;20358;-73
2022/11/04 12:55:39;;;;;;;4.90;3.33;;;12.50;99.90;;;;;;5152109;27;20145;-72
2022/11/04 12:58:34;;;;;;;2.38;0.80;;;12.40;99.90;;;;;;5152782;27;20057;-72
2022/11/04 13:01:09;;;;;;;1.95;0.70;;;12.10;99.90;;;;;;5134762;27;20110;-72
2022/11/04 13:03:58;;;;;;;1.02;0.50;;;11.50;99.90;;;;;;5153248;27;20077;-73
2022/11/04 13:06:33;;;;;;;2.20;0.68;;;11.20;99.90;;;;;;5152559;27;20106;-72
2022/11/04 13:09:08;;;;;;;2.10;0.50;;;10.80;99.90;;;;;;5153200;27;20049;-72
2022/11/04 13:11:53;;;;;;;2.33;0.57;;;10.60;99.90;;;;;;5152631;27;20509;-71
2022/11/04 13:14:28;;;;;;;1.42;0.50;;;10.40;99.90;;;;;;5152997;27;20394;-72
2022/11/04 13:16:59;;;;;;;2.20;0.63;;;10.20;99.90;;;;;;5152757;27;20038;-72
2022/11/04 13:19:30;;;;;;;2.53;0.60;;;10.10;99.90;;;;;;5152874;27;20030;-71
2022/11/04 13:22:00;;;;;;;2.20;0.60;;;10.10;99.90;;;;;;5152790;27;20390;-72
2022/11/04 13:24:36;;;;;;;1.92;0.50;;;10.10;99.90;;;;;;5152729;27;20047;-71
2022/11/04 13:27:32;;;;;;;1.80;0.50;;;10.00;99.90;;;;;;5152637;27;20413;-71
2022/11/04 13:30:22;;;;;;;1.17;0.60;;;10.00;99.90;;;;;;5130407;27;20091;-71
2022/11/04 13:33:01;;;;;;;1.42;0.73;;;10.00;99.90;;;;;;5157362;27;20050;-71
2022/11/04 13:35:50;;;;;;;1.73;0.75;;;10.00;99.90;;;;;;5156923;27;20490;-71
2022/11/04 13:38:22;;;;;;;0.95;0.55;;;9.90;99.90;;;;;;5142848;27;20043;-71
2022/11/04 13:41:20;;;;;;;3.47;0.70;;;9.90;99.90;;;;;;5138422;27;20555;-71
2022/11/04 13:43:56;;;;;;;1.35;0.55;;;9.80;99.90;;;;;;5140195;27;20383;-71